createdAt,value
2022-08-26T00:00:20.839Z,49.63
2022-08-26T00:02:49.202Z,50.02
2022-08-26T00:05:18.150Z,50.13
2022-08-26T00:07:46.707Z,49.91
2022-08-26T00:10:15.358Z,50.04
2022-08-26T00:12:45.318Z,50.69
2022-08-26T00:15:19.164Z,50.72
2022-08-26T00:17:49.829Z,50.69
2022-08-26T00:20:22.826Z,50.39
2022-08-26T00:22:51.549Z,50.96
2022-08-26T00:25:20.539Z,50.74
2022-08-26T00:27:50.670Z,50.71
2022-08-26T00:30:26.597Z,51.12
2022-08-26T00:32:56.069Z,51.38
2022-08-26T00:35:25.616Z,51.40
2022-08-26T00:37:57.418Z,51.28
2022-08-26T00:40:31.417Z,51.23
2022-08-26T00:43:02.351Z,51.77
2022-08-26T00:45:45.111Z,51.33
2022-08-26T00:48:17.034Z,51.67
2022-08-26T00:50:54.397Z,51.88
2022-08-26T00:53:26.299Z,51.89
2022-08-26T00:56:02.569Z,51.97
2022-08-26T00:58:35.092Z,52.19
2022-08-26T01:01:04.081Z,52.41
2022-08-26T01:03:35.026Z,52.53
2022-08-26T01:06:05.278Z,52.48
2022-08-26T01:08:42.060Z,52.78
2022-08-26T01:11:12.555Z,52.85
2022-08-26T01:13:43.336Z,53.04
2022-08-26T01:16:15.613Z,53.15
2022-08-26T01:18:46.943Z,53.47
2022-08-26T01:21:27.202Z,53.52
2022-08-26T01:23:58.913Z,53.65
2022-08-26T01:26:34.433Z,53.68
2022-08-26T01:29:07.929Z,54.04
2022-08-26T01:31:42.335Z,54.10
2022-08-26T01:34:18.832Z,54.17
2022-08-26T01:36:51.582Z,54.53
2022-08-26T01:39:21.901Z,54.34
2022-08-26T01:41:53.855Z,54.91
2022-08-26T01:44:26.833Z,54.86
2022-08-26T01:46:58.061Z,54.66
2022-08-26T01:49:27.882Z,54.67
2022-08-26T01:52:02.020Z,54.95
2022-08-26T01:54:34.264Z,55.21
2022-08-26T01:57:03.845Z,55.28
2022-08-26T01:59:32.758Z,55.27
2022-08-26T02:02:01.593Z,55.35
2022-08-26T02:04:34.839Z,55.29
2022-08-26T02:07:07.761Z,55.38
2022-08-26T02:09:41.357Z,55.53
2022-08-26T02:12:11.739Z,55.60
2022-08-26T02:14:46.666Z,55.58
2022-08-26T02:17:15.697Z,55.63
2022-08-26T02:19:51.388Z,55.56
2022-08-26T02:22:24.703Z,55.76
2022-08-26T02:24:58.565Z,55.63
2022-08-26T02:27:32.841Z,55.96
2022-08-26T02:30:11.093Z,55.92
2022-08-26T02:32:40.316Z,56.10
2022-08-26T02:35:11.174Z,56.10
2022-08-26T02:37:39.765Z,56.39
2022-08-26T02:40:15.887Z,56.21
2022-08-26T02:42:44.577Z,56.60
2022-08-26T02:45:13.468Z,56.54
2022-08-26T02:47:45.954Z,56.72
2022-08-26T02:50:15.737Z,56.79
2022-08-26T02:52:45.292Z,56.89
2022-08-26T02:55:15.716Z,56.82
2022-08-26T02:57:44.183Z,57.11
2022-08-26T03:00:16.345Z,56.92
2022-08-26T03:02:45.076Z,57.16
2022-08-26T03:05:14.244Z,57.17
2022-08-26T03:07:45.183Z,57.29
2022-08-26T03:10:16.366Z,57.39
2022-08-26T03:12:47.453Z,57.40
2022-08-26T03:15:19.400Z,57.56
2022-08-26T03:17:50.239Z,57.62
2022-08-26T03:20:19.516Z,57.77
2022-08-26T03:22:49.773Z,57.83
2022-08-26T03:25:22.449Z,57.78
2022-08-26T03:27:52.365Z,57.88
2022-08-26T03:30:38.725Z,58.03
2022-08-26T03:33:15.020Z,58.14
2022-08-26T03:35:45.697Z,58.48
2022-08-26T03:38:14.482Z,58.34
2022-08-26T03:40:44.830Z,58.15
2022-08-26T03:43:15.939Z,58.39
2022-08-26T03:45:44.772Z,58.45
2022-08-26T03:48:14.447Z,58.46
2022-08-26T03:50:43.845Z,58.60
2022-08-26T03:53:12.861Z,58.62
2022-08-26T03:55:43.641Z,58.62
2022-08-26T03:58:12.518Z,58.68
2022-08-26T04:00:40.899Z,58.71
2022-08-26T04:03:14.740Z,58.74
2022-08-26T04:05:46.789Z,58.90
2022-08-26T04:08:15.383Z,58.81
2022-08-26T04:10:45.172Z,58.84
2022-08-26T04:13:13.776Z,58.83
2022-08-26T04:15:42.220Z,58.91
2022-08-26T04:18:10.677Z,59.01
2022-08-26T04:20:39.352Z,59.16
2022-08-26T04:23:08.075Z,59.10
2022-08-26T04:25:36.549Z,59.17
2022-08-26T04:28:10.593Z,59.34
2022-08-26T04:30:39.565Z,59.24
2022-08-26T04:33:13.183Z,59.33
2022-08-26T04:35:44.014Z,59.35
2022-08-26T04:38:12.863Z,59.51
2022-08-26T04:40:46.755Z,59.40
2022-08-26T04:43:16.817Z,59.54
2022-08-26T04:45:45.260Z,59.47
2022-08-26T04:48:16.828Z,59.33
2022-08-26T04:50:45.407Z,59.38
2022-08-26T04:53:18.112Z,59.33
2022-08-26T04:55:46.667Z,59.41
2022-08-26T04:58:20.821Z,59.26
2022-08-26T05:00:51.531Z,59.29
2022-08-26T05:03:20.885Z,59.35
2022-08-26T05:05:50.893Z,59.39
2022-08-26T05:08:22.532Z,59.33
2022-08-26T05:10:55.899Z,59.32
2022-08-26T05:13:28.590Z,59.19
2022-08-26T05:16:00.557Z,59.09
2022-08-26T05:18:29.984Z,59.21
2022-08-26T05:20:58.420Z,59.18
2022-08-26T05:23:27.148Z,59.17
2022-08-26T05:25:59.245Z,59.19
2022-08-26T05:28:31.203Z,59.21
2022-08-26T05:31:00.553Z,59.33
2022-08-26T05:33:29.424Z,59.41
2022-08-26T05:35:57.924Z,59.22
2022-08-26T05:38:30.316Z,59.44
2022-08-26T05:40:59.000Z,59.42
2022-08-26T05:43:29.716Z,59.43
2022-08-26T05:46:07.751Z,59.44
2022-08-26T05:48:36.373Z,59.87
2022-08-26T05:51:08.781Z,59.86
2022-08-26T05:53:38.649Z,59.81
2022-08-26T05:56:09.327Z,59.84
2022-08-26T05:58:42.426Z,59.78
2022-08-26T06:01:17.429Z,59.73
2022-08-26T06:03:50.053Z,59.63
2022-08-26T06:06:27.212Z,59.75
2022-08-26T06:08:59.530Z,59.63
2022-08-26T06:11:30.562Z,59.64
2022-08-26T06:14:04.356Z,59.43
2022-08-26T06:16:36.301Z,59.41
2022-08-26T06:19:10.747Z,59.36
2022-08-26T06:21:41.543Z,59.38
2022-08-26T06:24:30.491Z,59.22
2022-08-26T06:27:02.160Z,59.19
2022-08-26T06:29:36.140Z,59.17
2022-08-26T06:32:06.778Z,59.02
2022-08-26T06:34:35.389Z,58.90
2022-08-26T06:37:06.466Z,59.04
2022-08-26T06:39:35.317Z,58.78
2022-08-26T06:42:08.876Z,59.03
2022-08-26T06:44:41.662Z,58.99
2022-08-26T06:47:13.285Z,59.04
2022-08-26T06:49:41.672Z,58.98
2022-08-26T06:52:10.084Z,58.79
2022-08-26T06:54:43.054Z,58.82
2022-08-26T06:57:13.118Z,58.78
2022-08-26T06:59:44.138Z,58.46
2022-08-26T07:02:13.433Z,58.24
2022-08-26T07:04:42.318Z,58.09
2022-08-26T07:07:14.759Z,57.39
2022-08-26T07:09:43.467Z,56.76
2022-08-26T07:12:11.842Z,56.42
2022-08-26T07:14:40.356Z,55.73
2022-08-26T07:17:14.335Z,56.11
2022-08-26T07:19:43.241Z,55.92
2022-08-26T07:22:11.601Z,55.67
2022-08-26T07:24:42.356Z,55.39
2022-08-26T07:27:15.110Z,55.31
2022-08-26T07:29:44.795Z,55.06
2022-08-26T07:32:22.945Z,55.10
2022-08-26T07:34:51.785Z,55.51
2022-08-26T07:37:20.413Z,55.04
2022-08-26T07:39:48.861Z,55.40
2022-08-26T07:42:19.669Z,54.88
2022-08-26T07:44:48.748Z,54.77
2022-08-26T07:47:24.760Z,54.25
2022-08-26T07:49:56.616Z,53.65
2022-08-26T07:52:27.549Z,52.67
2022-08-26T07:54:58.093Z,52.51
2022-08-26T07:57:27.155Z,51.44
2022-08-26T07:59:56.673Z,50.83
2022-08-26T08:02:28.088Z,50.64
2022-08-26T08:04:57.862Z,50.73
2022-08-26T08:07:44.286Z,50.66
2022-08-26T08:10:17.931Z,50.66
2022-08-26T08:12:48.064Z,50.58
2022-08-26T08:15:20.111Z,50.12
2022-08-26T08:17:51.560Z,49.32
2022-08-26T08:20:20.849Z,48.78
2022-08-26T08:22:49.965Z,47.92
2022-08-26T08:25:18.520Z,47.05
2022-08-26T08:27:48.614Z,45.86
2022-08-26T08:30:23.039Z,45.91
2022-08-26T08:32:53.524Z,45.71
2022-08-26T08:35:26.250Z,46.15
2022-08-26T08:37:56.577Z,46.39
2022-08-26T08:40:27.844Z,46.56
2022-08-26T08:43:04.826Z,46.51
2022-08-26T08:45:37.730Z,46.07
2022-08-26T08:48:15.231Z,46.06
2022-08-26T08:50:48.373Z,45.87
2022-08-26T08:53:22.656Z,45.96
2022-08-26T08:56:05.529Z,45.83
2022-08-26T08:58:51.470Z,45.47
2022-08-26T09:01:31.716Z,44.89
2022-08-26T09:04:24.941Z,44.52
2022-08-26T09:06:59.072Z,44.01
2022-08-26T09:09:32.350Z,44.17
2022-08-26T09:12:03.216Z,43.41
2022-08-26T09:14:32.949Z,42.19
2022-08-26T09:17:14.077Z,41.54
2022-08-26T09:19:50.476Z,41.09
2022-08-26T09:22:31.004Z,41.62
2022-08-26T09:24:59.684Z,41.87
2022-08-26T09:27:44.078Z,42.19
2022-08-26T09:30:16.566Z,42.83
2022-08-26T09:33:01.177Z,43.06
2022-08-26T09:35:34.585Z,42.97
2022-08-26T09:38:03.732Z,42.68
2022-08-26T09:40:35.244Z,42.09
2022-08-26T09:43:22.867Z,40.84
2022-08-26T09:45:59.284Z,39.77
2022-08-26T09:48:35.534Z,39.81
2022-08-26T09:51:24.073Z,40.30
2022-08-26T09:53:56.140Z,40.26
2022-08-26T09:56:29.946Z,40.38
2022-08-26T09:58:59.665Z,40.69
2022-08-26T10:01:34.889Z,40.99
2022-08-26T10:04:11.322Z,41.45
2022-08-26T10:06:56.928Z,41.93
2022-08-26T10:09:28.116Z,41.96
2022-08-26T10:12:03.457Z,41.86
2022-08-26T10:14:39.772Z,42.02
2022-08-26T10:17:15.850Z,42.17
2022-08-26T10:19:56.744Z,42.21
2022-08-26T10:22:34.154Z,41.74
2022-08-26T10:25:09.233Z,41.85
2022-08-26T10:27:49.744Z,41.49
2022-08-26T10:30:28.638Z,40.93
2022-08-26T10:33:03.462Z,40.95
2022-08-26T10:35:34.797Z,41.05
2022-08-26T10:38:13.131Z,41.08
2022-08-26T10:40:56.156Z,41.23
2022-08-26T10:43:31.081Z,41.39
2022-08-26T10:46:04.278Z,42.01
2022-08-26T10:48:43.491Z,41.55
2022-08-26T10:51:13.640Z,40.35
2022-08-26T10:53:55.938Z,39.75
2022-08-26T10:56:44.597Z,39.58
2022-08-26T10:59:26.513Z,39.85
2022-08-26T11:02:06.343Z,40.15
2022-08-26T11:04:51.704Z,40.02
2022-08-26T11:07:42.885Z,39.19
2022-08-26T11:11:01.093Z,37.96
2022-08-26T11:14:04.358Z,37.00
2022-08-26T11:16:43.574Z,35.91
2022-08-26T11:19:58.765Z,35.03
2022-08-26T11:22:31.061Z,34.96
2022-08-26T11:25:11.398Z,35.05
2022-08-26T11:28:07.585Z,34.87
2022-08-26T11:30:43.861Z,34.52
2022-08-26T11:33:32.724Z,34.50
2022-08-26T11:36:01.304Z,34.50
2022-08-26T11:38:45.167Z,35.29
2022-08-26T11:41:21.824Z,35.35
2022-08-26T11:43:52.258Z,34.66
2022-08-26T11:46:27.776Z,35.10
2022-08-26T11:49:05.214Z,35.18
2022-08-26T11:51:40.186Z,35.24
2022-08-26T11:54:16.274Z,35.08
2022-08-26T11:56:48.056Z,34.46
2022-08-26T11:59:25.184Z,34.60
2022-08-26T12:01:55.649Z,34.32
2022-08-26T12:04:31.236Z,34.31
2022-08-26T12:07:03.038Z,34.73
2022-08-26T12:09:37.827Z,35.04
2022-08-26T12:12:17.060Z,35.51
2022-08-26T12:14:46.068Z,34.91
2022-08-26T12:17:18.781Z,34.95
2022-08-26T12:19:47.817Z,34.83
2022-08-26T12:22:23.112Z,34.84
2022-08-26T12:24:58.472Z,34.87
2022-08-26T12:27:29.228Z,33.76
2022-08-26T12:30:10.107Z,33.52
2022-08-26T12:32:57.472Z,32.78
2022-08-26T12:35:28.788Z,31.95
2022-08-26T12:37:58.708Z,31.68
2022-08-26T12:40:41.915Z,30.94
2022-08-26T12:43:13.525Z,30.46
2022-08-26T12:45:45.436Z,30.37
2022-08-26T12:48:24.638Z,29.69
2022-08-26T12:50:54.159Z,29.24
2022-08-26T12:53:24.887Z,28.80
2022-08-26T12:55:57.229Z,28.91
2022-08-26T12:58:30.078Z,28.36
2022-08-26T13:01:20.235Z,28.31
2022-08-26T13:03:49.802Z,27.81
2022-08-26T13:06:31.234Z,28.06
2022-08-26T13:09:02.105Z,27.68
2022-08-26T13:11:35.562Z,27.23
2022-08-26T13:14:09.380Z,27.10
2022-08-26T13:16:41.640Z,27.04
2022-08-26T13:19:13.080Z,27.02
2022-08-26T13:21:47.980Z,26.98
2022-08-26T13:24:20.965Z,26.73
2022-08-26T13:26:51.526Z,26.41
2022-08-26T13:29:20.721Z,26.40
2022-08-26T13:31:49.781Z,26.29
2022-08-26T13:34:21.533Z,25.89
2022-08-26T13:36:51.741Z,26.30
2022-08-26T13:39:21.229Z,26.26
2022-08-26T13:41:51.480Z,26.25
2022-08-26T13:44:20.326Z,25.65
2022-08-26T13:46:49.040Z,25.41
2022-08-26T13:49:17.556Z,25.21
2022-08-26T13:51:46.042Z,25.13
2022-08-26T13:54:14.406Z,24.75
2022-08-26T13:56:42.790Z,25.22
2022-08-26T13:59:12.629Z,24.89
2022-08-26T14:01:41.029Z,24.37
2022-08-26T14:04:09.581Z,23.72
2022-08-26T14:06:38.236Z,23.60
2022-08-26T14:09:06.823Z,22.96
2022-08-26T14:11:50.853Z,23.45
2022-08-26T14:14:25.109Z,23.43
2022-08-26T14:17:00.128Z,23.75
2022-08-26T14:19:31.063Z,23.55
2022-08-26T14:22:01.400Z,23.98
2022-08-26T14:24:30.156Z,24.09
2022-08-26T14:26:58.593Z,24.36
2022-08-26T14:29:28.670Z,24.91
2022-08-26T14:31:58.919Z,25.22
2022-08-26T14:34:27.721Z,24.64
2022-08-26T14:36:56.084Z,24.84
2022-08-26T14:39:24.524Z,24.97
2022-08-26T14:41:56.746Z,25.22
2022-08-26T14:44:31.346Z,25.81
2022-08-26T14:47:03.416Z,26.11
2022-08-26T14:49:32.358Z,26.58
2022-08-26T14:52:00.780Z,26.89
2022-08-26T14:54:29.361Z,26.64
2022-08-26T14:57:02.042Z,27.34
2022-08-26T14:59:36.145Z,27.19
2022-08-26T15:02:06.178Z,27.51
2022-08-26T15:04:34.985Z,27.61
2022-08-26T15:07:04.865Z,28.12
2022-08-26T15:09:36.828Z,28.27
2022-08-26T15:12:06.560Z,28.17
2022-08-26T15:14:36.349Z,28.28
2022-08-26T15:17:05.317Z,28.73
2022-08-26T15:19:33.966Z,29.70
2022-08-26T15:22:02.363Z,30.45
2022-08-26T15:24:30.732Z,31.46
2022-08-26T15:26:59.252Z,31.98
2022-08-26T15:29:27.836Z,32.18
2022-08-26T15:31:57.733Z,32.57
2022-08-26T15:34:26.854Z,33.04
2022-08-26T15:36:55.940Z,33.57
2022-08-26T15:39:24.757Z,34.25
2022-08-26T15:41:53.533Z,34.74
2022-08-26T15:44:21.985Z,35.20
2022-08-26T15:46:55.348Z,35.72
2022-08-26T15:49:28.510Z,35.92
2022-08-26T15:51:57.132Z,36.59
2022-08-26T15:54:25.917Z,37.47
2022-08-26T15:56:54.516Z,38.39
2022-08-26T15:59:23.448Z,38.49
2022-08-26T16:01:53.118Z,39.44
2022-08-26T16:04:21.957Z,39.88
2022-08-26T16:06:52.182Z,39.76
2022-08-26T16:09:24.322Z,40.04
2022-08-26T16:11:53.295Z,40.51
2022-08-26T16:14:22.480Z,41.04
2022-08-26T16:16:51.566Z,41.39
2022-08-26T16:19:20.067Z,41.60
2022-08-26T16:21:50.693Z,41.85
2022-08-26T16:24:24.860Z,42.17
2022-08-26T16:26:55.354Z,42.17
2022-08-26T16:29:24.492Z,42.68
2022-08-26T16:31:54.611Z,42.72
2022-08-26T16:34:23.317Z,42.60
2022-08-26T16:36:53.063Z,43.07
2022-08-26T16:39:22.787Z,42.70
2022-08-26T16:41:51.417Z,43.25
2022-08-26T16:44:19.832Z,43.27
2022-08-26T16:46:48.297Z,43.53
2022-08-26T16:49:16.991Z,43.16
2022-08-26T16:51:45.505Z,43.44
2022-08-26T16:54:14.553Z,43.54
2022-08-26T16:56:44.297Z,43.73
2022-08-26T16:59:12.925Z,43.56
2022-08-26T17:01:41.635Z,43.56
2022-08-26T17:04:10.125Z,43.00
2022-08-26T17:06:38.550Z,42.99
2022-08-26T17:09:07.240Z,43.42
2022-08-26T17:11:36.019Z,43.64
2022-08-26T17:14:06.590Z,43.91
2022-08-26T17:16:35.344Z,44.81
2022-08-26T17:19:05.537Z,44.79
2022-08-26T17:21:35.719Z,45.29
2022-08-26T17:24:05.899Z,45.56
2022-08-26T17:26:34.498Z,45.89
2022-08-26T17:29:03.174Z,46.34
2022-08-26T17:31:33.089Z,46.65
2022-08-26T17:34:01.504Z,46.96
2022-08-26T17:36:30.061Z,47.19
2022-08-26T17:38:59.533Z,47.67
2022-08-26T17:41:28.785Z,47.66
2022-08-26T17:43:57.486Z,47.90
2022-08-26T17:46:26.602Z,48.12
2022-08-26T17:48:56.849Z,48.36
2022-08-26T17:51:25.396Z,48.52
2022-08-26T17:53:54.002Z,48.74
2022-08-26T17:56:25.477Z,48.82
2022-08-26T17:58:54.845Z,49.12
2022-08-26T18:01:27.559Z,49.40
2022-08-26T18:04:00.441Z,49.47
2022-08-26T18:06:30.291Z,49.56
2022-08-26T18:08:59.429Z,49.44
2022-08-26T18:11:28.585Z,49.73
2022-08-26T18:13:56.948Z,50.06
2022-08-26T18:16:25.982Z,50.19
2022-08-26T18:18:55.921Z,50.13
2022-08-26T18:21:28.831Z,50.03
2022-08-26T18:23:57.806Z,50.24
2022-08-26T18:26:29.645Z,50.40
2022-08-26T18:28:58.443Z,50.47
2022-08-26T18:31:27.762Z,50.48
2022-08-26T18:34:00.197Z,50.60
2022-08-26T18:36:31.477Z,50.51
2022-08-26T18:39:00.570Z,50.57
2022-08-26T18:41:33.387Z,50.50
2022-08-26T18:44:01.960Z,50.60
2022-08-26T18:46:30.462Z,51.04
2022-08-26T18:49:00.337Z,51.11
2022-08-26T18:51:31.897Z,51.24
2022-08-26T18:54:02.487Z,51.50
2022-08-26T18:56:31.374Z,51.57
2022-08-26T18:59:00.097Z,51.70
2022-08-26T19:01:34.043Z,52.05
2022-08-26T19:04:06.501Z,52.07
2022-08-26T19:06:36.917Z,51.96
2022-08-26T19:09:08.908Z,52.07
2022-08-26T19:11:38.358Z,52.41
2022-08-26T19:14:14.207Z,52.72
2022-08-26T19:16:44.808Z,52.79
2022-08-26T19:19:15.376Z,52.95
2022-08-26T19:21:44.117Z,53.21
2022-08-26T19:24:17.359Z,53.08
2022-08-26T19:26:48.932Z,53.33
2022-08-26T19:29:20.517Z,53.72
2022-08-26T19:31:49.048Z,53.91
2022-08-26T19:34:20.686Z,53.75
2022-08-26T19:36:50.500Z,54.03
2022-08-26T19:39:18.845Z,54.19
2022-08-26T19:41:47.805Z,54.28
2022-08-26T19:44:51.235Z,54.38
2022-08-26T19:47:19.668Z,54.09
2022-08-26T19:49:53.376Z,54.34
2022-08-26T19:52:22.583Z,54.66
2022-08-26T19:54:58.501Z,54.63
2022-08-26T19:57:27.226Z,54.61
2022-08-26T19:59:55.678Z,54.41
2022-08-26T20:02:24.541Z,55.00
2022-08-26T20:04:54.424Z,54.96
2022-08-26T20:07:23.084Z,54.84
2022-08-26T20:09:51.558Z,54.91
2022-08-26T20:12:20.315Z,55.04
2022-08-26T20:14:48.725Z,55.49
2022-08-26T20:17:17.389Z,55.61
2022-08-26T20:20:03.469Z,55.24
2022-08-26T20:22:34.122Z,55.40
2022-08-26T20:25:02.828Z,55.80
2022-08-26T20:27:38.035Z,55.53
2022-08-26T20:30:10.262Z,55.74
2022-08-26T20:32:39.734Z,55.75
2022-08-26T20:35:12.028Z,55.89
2022-08-26T20:37:42.908Z,55.90
2022-08-26T20:40:13.891Z,56.28
2022-08-26T20:42:42.493Z,56.25
2022-08-26T20:45:11.905Z,55.95
2022-08-26T20:47:40.888Z,56.36
2022-08-26T20:50:10.120Z,56.17
2022-08-26T20:52:38.559Z,56.09
2022-08-26T20:55:09.921Z,56.22
2022-08-26T20:57:38.580Z,56.34
2022-08-26T21:00:08.465Z,56.87
2022-08-26T21:02:37.439Z,56.78
2022-08-26T21:05:06.991Z,57.05
2022-08-26T21:07:35.958Z,56.86
2022-08-26T21:10:04.954Z,57.23
2022-08-26T21:12:35.479Z,57.15
2022-08-26T21:15:04.620Z,57.43
2022-08-26T21:17:33.245Z,57.57
2022-08-26T21:20:02.125Z,57.42
2022-08-26T21:22:30.821Z,57.49
2022-08-26T21:24:59.180Z,57.94
2022-08-26T21:27:27.888Z,57.83
2022-08-26T21:29:58.116Z,58.06
2022-08-26T21:32:26.859Z,58.48
2022-08-26T21:34:57.204Z,58.64
2022-08-26T21:37:26.793Z,58.46
2022-08-26T21:39:58.903Z,58.35
2022-08-26T21:42:32.956Z,58.50
2022-08-26T21:45:04.188Z,58.97
2022-08-26T21:47:32.887Z,58.93
2022-08-26T21:50:01.553Z,58.90
2022-08-26T21:52:30.232Z,59.03
2022-08-26T21:54:59.820Z,58.91
2022-08-26T21:57:29.987Z,58.72
2022-08-26T21:59:58.976Z,58.97
2022-08-26T22:02:29.145Z,59.09
2022-08-26T22:04:57.532Z,59.21
2022-08-26T22:07:26.090Z,59.10
2022-08-26T22:09:54.741Z,59.24
2022-08-26T22:12:23.153Z,59.13
2022-08-26T22:14:51.604Z,59.33
2022-08-26T22:17:19.960Z,59.18
2022-08-26T22:19:50.087Z,59.74
2022-08-26T22:22:18.581Z,59.66
2022-08-26T22:24:46.969Z,59.74
2022-08-26T22:27:15.824Z,59.46
2022-08-26T22:29:46.490Z,59.94
2022-08-26T22:32:15.376Z,59.74
2022-08-26T22:34:44.046Z,59.89
2022-08-26T22:37:13.873Z,59.92
2022-08-26T22:39:42.572Z,60.29
2022-08-26T22:42:10.980Z,60.25
2022-08-26T22:44:41.171Z,60.35
2022-08-26T22:47:24.989Z,60.46
2022-08-26T22:49:53.437Z,60.45
2022-08-26T22:52:23.168Z,61.08
2022-08-26T22:54:52.005Z,61.20
2022-08-26T22:57:20.797Z,60.96
2022-08-26T22:59:49.557Z,61.39
2022-08-26T23:02:18.188Z,61.24
2022-08-26T23:04:46.652Z,61.55
2022-08-26T23:07:15.041Z,61.75
2022-08-26T23:09:45.098Z,62.02
2022-08-26T23:12:13.718Z,61.98
2022-08-26T23:14:43.886Z,62.08
2022-08-26T23:17:14.322Z,62.15
2022-08-26T23:19:42.986Z,62.22
2022-08-26T23:22:11.573Z,62.11
2022-08-26T23:24:40.869Z,62.43
2022-08-26T23:27:11.232Z,62.73
2022-08-26T23:29:39.820Z,62.69
2022-08-26T23:32:08.359Z,62.71
2022-08-26T23:34:54.289Z,62.83
2022-08-26T23:37:23.261Z,62.97
2022-08-26T23:39:54.417Z,63.16
2022-08-26T23:42:24.336Z,63.08
2022-08-26T23:44:56.616Z,63.28
2022-08-26T23:47:25.173Z,63.32
2022-08-26T23:49:53.928Z,63.46
2022-08-26T23:52:39.866Z,63.21
2022-08-26T23:55:10.640Z,63.46
2022-08-26T23:57:40.516Z,63.80
